Flight Track Log - Related Links

Times and Time Zones

All times are in EDT time to prevent confusion due to time zone crossing. See the CTL14 flight status page for this flight to view local times or setup timezone preferences in your user account.

Time Position Orientation Groundspeed Altitude Reporting Facility
EDT Latitude Longitude Course Direction KTS MPH feet Rate Location/Type
Wed 11:08:35 PM 40.5550 -88.8558 30° Northeast 139 160 4,100  Level Chicago Center
Wed 11:09:36 PM 40.5928 -88.8472 10° North 138 159 5,200 1,082 Climbing Chicago Center
Wed 11:10:37 PM 40.6386 -88.8375 North 138 159 6,300 885 Climbing Chicago Center
Wed 11:11:38 PM 40.6767 -88.8286 10° North 138 159 7,000 341 Climbing Chicago Center
Wed 11:12:40 PM 40.7197 -88.8172 11° North 147 169 7,000  Level Chicago Center
Wed 11:13:41 PM 40.7678 -88.8056 10° North 162 186 7,000 49 Level Chicago Center
Wed 11:14:42 PM 40.8172 -88.7914 12° North 173 199 7,100 49 Climbing Chicago Center
Wed 11:15:43 PM 40.8633 -88.7806 10° North 173 199 7,100 -49 Level Chicago Center
Wed 11:16:44 PM 40.9122 -88.7717 North 174 200 7,000 -49 Descending Chicago Center
Wed 11:17:45 PM 40.9603 -88.7603 10° North 176 203 7,000  Level Chicago Center
Wed 11:18:47 PM 41.0094 -88.7519 North 176 203 7,000 49 Level Chicago Center
Wed 11:19:48 PM 41.0664 -88.7414 North 175 201 7,100  Climbing Chicago Center
Wed 11:20:49 PM 41.1139 -88.7342 North 174 200 7,000 -49 Descending Chicago Center
Wed 11:21:50 PM 41.1628 -88.7203 12° North 176 203 7,000  Level Chicago Center
Wed 11:22:51 PM 41.2122 -88.7089 10° North 178 205 7,000 49 Level Chicago Center
Wed 11:23:52 PM 41.2614 -88.6978 10° North 179 206 7,100  Climbing Chicago Center
Wed 11:24:53 PM 41.3086 -88.6867 10° North 175 201 7,000 -49 Descending Chicago Center
Wed 11:25:54 PM 41.3569 -88.6742 11° North 175 201 7,000 -195 Level Chicago Center
Wed 11:26:56 PM 41.4061 -88.6611 11° North 177 204 6,600 -390 Descending Chicago Center
Wed 11:27:57 PM 41.4603 -88.6483 10° North 189 217 6,200 -295 Descending Chicago Center
Wed 11:28:58 PM 41.5136 -88.6353 10° North 194 223 6,000 -49 Descending Chicago Center
Wed 11:29:59 PM 41.5633 -88.6247 North 185 213 6,100 49 Climbing Chicago Center
Wed 11:31:00 PM 41.6242 -88.6111 North 183 211 6,100  Level Chicago Center
Wed 11:32:01 PM 41.6692 -88.5822 26° Northeast 178 205 6,100  Level Chicago Center
Wed 11:33:02 PM 41.7103 -88.5325 42° Northeast 193 222 6,100 -295 Level Chicago Center
Wed 11:34:03 PM 41.7514 -88.4850 41° Northeast 194 223 5,500 -590 Descending Chicago Center
Wed 11:35:04 PM 41.7942 -88.4344 41° Northeast 199 229 4,900 -492 Descending Chicago Center
Wed 11:36:05 PM 41.8467 -88.4056 22° Northeast 203 234 4,500 -443 Descending Chicago Center
Wed 11:37:06 PM 41.9008 -88.3853 16° North 203 234 4,000 -246 Descending Chicago Center
Wed 11:38:07 PM 41.9528 -88.3639 17° North 200 230 4,000 -99 Level Chicago Center
Wed 11:39:07 PM 41.9972 -88.3175 38° Northeast 206 237 3,800 -446 Descending Chicago Center
Wed 11:40:08 PM 42.0442 -88.2706 37° Northeast 209 241 3,100 -639 Descending Chicago Center
Wed 11:41:09 PM 42.0842 -88.2103 48° Northeast 216 249 2,500 -443 Descending Chicago Center
Wed 11:42:10 PM 42.1172 -88.1311 61° Northeast 218 251 2,200 -295 Descending Chicago Center
Wed 11:44:00 PM 42.1157 -88.0109 48° Northeast  Level Estimated
Wed 11:51:00 PM 42.1000 -87.9000 166° South  Level FlightAware Approximate
Wed 11:52:00 PM 42.1143 -87.9015 166° South  Level Estimated

Login

Don't have an account? Register now (free) for customized features, flight alerts, and more!